createdAt,value
2022-08-26T00:01:44.767Z,15.50
2022-08-26T00:04:13.222Z,25.42
2022-08-26T00:06:42.630Z,15.95
2022-08-26T00:09:16.248Z,17.25
2022-08-26T00:11:45.909Z,17.58
2022-08-26T00:14:13.804Z,18.50
2022-08-26T00:16:47.159Z,14.13
2022-08-26T00:19:16.485Z,15.27
2022-08-26T00:21:44.261Z,15.40
2022-08-26T00:24:11.977Z,17.35
2022-08-26T00:26:39.999Z,14.85
2022-08-26T00:29:10.202Z,13.35
2022-08-26T00:31:38.126Z,18.50
2022-08-26T00:34:07.354Z,17.15
2022-08-26T00:36:37.376Z,16.75
2022-08-26T00:39:08.057Z,17.38
2022-08-26T00:41:35.569Z,17.88
2022-08-26T00:44:03.205Z,18.98
2022-08-26T00:46:34.763Z,19.48
2022-08-26T00:49:11.862Z,17.55
2022-08-26T00:51:43.817Z,16.52
2022-08-26T00:54:12.290Z,13.82
2022-08-26T00:56:42.762Z,17.88
2022-08-26T00:59:12.830Z,18.77
2022-08-26T01:01:43.185Z,16.30
2022-08-26T01:04:14.756Z,19.20
2022-08-26T01:06:44.421Z,18.20
2022-08-26T01:09:11.987Z,15.70
2022-08-26T01:11:39.736Z,15.45
2022-08-26T01:14:07.523Z,13.70
2022-08-26T01:16:35.521Z,19.10
2022-08-26T01:19:08.852Z,12.88
2022-08-26T01:21:40.732Z,16.48
2022-08-26T01:24:10.868Z,22.65
2022-08-26T01:26:41.350Z,15.02
2022-08-26T01:29:12.712Z,17.33
2022-08-26T01:31:42.744Z,14.40
2022-08-26T01:34:13.228Z,19.38
2022-08-26T01:36:41.333Z,16.02
2022-08-26T01:39:10.795Z,15.13
2022-08-26T01:41:39.013Z,20.80
2022-08-26T01:44:09.828Z,17.38
2022-08-26T01:46:37.730Z,18.10
2022-08-26T01:49:07.797Z,15.48
2022-08-26T01:51:37.009Z,24.40
2022-08-26T01:54:05.027Z,19.08
2022-08-26T01:56:36.561Z,16.42
2022-08-26T01:59:07.270Z,15.25
2022-08-26T02:01:41.734Z,14.57
2022-08-26T02:04:14.506Z,17.08
2022-08-26T02:06:42.868Z,22.35
2022-08-26T02:09:10.694Z,19.50
2022-08-26T02:11:39.580Z,15.95
2022-08-26T02:14:09.669Z,20.75
2022-08-26T02:16:39.380Z,19.10
2022-08-26T02:19:16.863Z,20.13
2022-08-26T02:21:45.265Z,20.45
2022-08-26T02:24:13.882Z,17.25
2022-08-26T02:26:43.046Z,16.83
2022-08-26T02:29:11.743Z,18.90
2022-08-26T02:31:39.778Z,24.33
2022-08-26T02:34:11.315Z,19.27
2022-08-26T02:36:38.854Z,17.55
2022-08-26T02:39:07.936Z,22.88
2022-08-26T02:41:36.146Z,18.65
2022-08-26T02:46:46.880Z,20.25
2022-08-26T02:49:14.896Z,21.00
2022-08-26T02:51:43.072Z,21.50
2022-08-26T02:54:10.673Z,17.23
2022-08-26T02:56:38.313Z,19.30
2022-08-26T02:59:06.128Z,19.38
2022-08-26T03:01:35.729Z,17.48
2022-08-26T03:04:06.140Z,18.63
2022-08-26T03:09:00.891Z,18.27
2022-08-26T03:11:32.982Z,17.40
2022-08-26T03:14:01.862Z,21.75
2022-08-26T03:16:32.460Z,20.20
2022-08-26T03:19:00.955Z,18.05
2022-08-26T03:21:29.853Z,18.77
2022-08-26T03:23:58.621Z,18.02
2022-08-26T03:26:27.028Z,16.92
2022-08-26T03:29:12.902Z,15.02
2022-08-26T03:31:41.054Z,19.25
2022-08-26T03:34:08.495Z,18.30
2022-08-26T03:36:37.374Z,20.85
2022-08-26T03:39:04.890Z,17.05
2022-08-26T03:41:32.769Z,18.00
2022-08-26T03:44:01.845Z,24.08
2022-08-26T03:46:29.732Z,22.08
2022-08-26T03:48:57.748Z,20.90
2022-08-26T03:51:26.288Z,16.80
2022-08-26T03:53:55.620Z,21.65
2022-08-26T03:56:24.713Z,17.70
2022-08-26T03:58:53.562Z,20.02
2022-08-26T04:01:21.106Z,18.23
2022-08-26T04:04:01.275Z,20.25
2022-08-26T04:06:29.677Z,19.70
2022-08-26T04:08:59.967Z,21.90
2022-08-26T04:14:00.771Z,22.95
2022-08-26T04:16:29.041Z,21.55
2022-08-26T04:18:57.161Z,24.80
2022-08-26T04:21:25.120Z,20.90
2022-08-26T04:23:53.017Z,19.90
2022-08-26T04:26:22.621Z,21.40
2022-08-26T04:28:52.896Z,20.70
2022-08-26T04:31:20.663Z,21.67
2022-08-26T04:33:49.913Z,20.95
2022-08-26T04:36:20.255Z,24.63
2022-08-26T04:38:47.820Z,20.40
2022-08-26T04:41:17.034Z,27.23
2022-08-26T04:43:46.439Z,20.90
2022-08-26T04:46:14.694Z,21.80
2022-08-26T04:48:44.284Z,21.33
2022-08-26T04:51:11.874Z,19.27
2022-08-26T04:53:39.333Z,22.10
2022-08-26T04:56:08.491Z,24.73
2022-08-26T04:58:37.526Z,19.23
2022-08-26T05:01:06.314Z,23.45
2022-08-26T05:03:33.853Z,21.60
2022-08-26T05:06:04.070Z,25.15
2022-08-26T05:08:31.878Z,19.05
2022-08-26T05:10:59.318Z,24.02
2022-08-26T05:13:28.479Z,21.38
2022-08-26T05:15:59.145Z,22.20
2022-08-26T05:18:30.252Z,21.55
2022-08-26T05:20:57.901Z,22.50
2022-08-26T05:23:25.442Z,25.27
2022-08-26T05:25:58.381Z,24.48
2022-08-26T05:28:28.306Z,21.45
2022-08-26T05:30:56.530Z,20.33
2022-08-26T05:33:24.303Z,18.05
2022-08-26T05:35:53.308Z,20.15
2022-08-26T05:38:21.678Z,23.52
2022-08-26T05:40:52.784Z,22.85
2022-08-26T05:43:22.147Z,23.80
2022-08-26T05:45:50.507Z,19.77
2022-08-26T05:48:18.862Z,20.48
2022-08-26T05:50:54.052Z,17.63
2022-08-26T05:53:22.617Z,19.88
2022-08-26T05:55:52.898Z,23.73
2022-08-26T05:58:21.525Z,21.60
2022-08-26T06:00:57.112Z,22.45
2022-08-26T06:03:24.668Z,22.23
2022-08-26T06:05:53.602Z,19.27
2022-08-26T06:08:21.188Z,21.17
2022-08-26T06:10:49.814Z,26.77
2022-08-26T06:13:19.287Z,22.80
2022-08-26T06:15:48.747Z,24.05
2022-08-26T06:18:16.874Z,22.20
2022-08-26T06:20:53.740Z,25.63
2022-08-26T06:23:45.137Z,23.10
2022-08-26T06:26:12.874Z,22.60
2022-08-26T06:28:43.657Z,22.38
2022-08-26T06:31:13.265Z,19.63
2022-08-26T06:33:40.689Z,30.90
2022-08-26T06:36:08.583Z,22.60
2022-08-26T06:38:37.976Z,34.42
2022-08-26T06:41:10.423Z,22.48
2022-08-26T06:43:38.432Z,20.58
2022-08-26T06:46:08.764Z,20.90
2022-08-26T06:48:36.808Z,24.08
2022-08-26T06:51:05.927Z,18.20
2022-08-26T06:53:33.473Z,20.52
2022-08-26T06:56:03.705Z,20.00
2022-08-26T06:58:31.148Z,22.75
2022-08-26T07:01:03.778Z,21.48
2022-08-26T07:03:39.688Z,26.63
2022-08-26T07:06:08.460Z,17.33
2022-08-26T07:08:36.303Z,22.08
2022-08-26T07:11:07.853Z,20.77
2022-08-26T07:13:37.656Z,20.75
2022-08-26T07:16:05.631Z,22.77
2022-08-26T07:18:33.962Z,19.58
2022-08-26T07:21:02.342Z,18.75
2022-08-26T07:23:30.318Z,23.85
2022-08-26T07:25:57.895Z,22.08
2022-08-26T07:28:27.280Z,21.90
2022-08-26T07:30:54.769Z,21.65
2022-08-26T07:33:22.517Z,25.17
2022-08-26T07:35:49.965Z,22.48
2022-08-26T07:38:18.118Z,21.65
2022-08-26T07:40:45.527Z,25.85
2022-08-26T07:43:12.964Z,21.95
2022-08-26T07:45:42.493Z,26.92
2022-08-26T07:48:10.019Z,18.15
2022-08-26T07:50:49.200Z,19.42
2022-08-26T07:53:18.249Z,22.05
2022-08-26T07:55:46.910Z,21.38
2022-08-26T07:58:14.606Z,22.55
2022-08-26T08:00:43.821Z,20.00
2022-08-26T08:05:41.249Z,21.02
2022-08-26T08:08:27.077Z,16.80
2022-08-26T08:10:57.126Z,33.28
2022-08-26T08:13:25.116Z,22.77
2022-08-26T08:15:53.947Z,17.92
2022-08-26T08:18:23.266Z,24.00
2022-08-26T08:20:54.560Z,25.98
2022-08-26T08:23:26.973Z,29.58
2022-08-26T08:26:01.292Z,20.73
2022-08-26T08:28:28.794Z,21.88
2022-08-26T08:30:57.748Z,22.58
2022-08-26T08:33:26.066Z,20.77
2022-08-26T08:35:55.015Z,21.83
2022-08-26T08:38:22.453Z,23.05
2022-08-26T08:40:51.802Z,18.38
2022-08-26T08:43:24.127Z,19.77
2022-08-26T08:45:52.803Z,18.33
2022-08-26T08:48:27.818Z,18.85
2022-08-26T08:50:56.849Z,16.92
2022-08-26T08:53:26.731Z,17.33
2022-08-26T08:55:59.343Z,22.58
2022-08-26T08:58:30.323Z,25.70
2022-08-26T09:01:00.304Z,22.30
2022-08-26T09:03:40.699Z,20.65
2022-08-26T09:06:16.952Z,22.98
2022-08-26T09:08:45.660Z,26.67
2022-08-26T09:11:13.724Z,22.88
2022-08-26T09:13:50.683Z,18.90
2022-08-26T09:16:20.449Z,19.98
2022-08-26T09:18:57.571Z,19.48
2022-08-26T09:21:25.536Z,23.90
2022-08-26T09:23:53.141Z,19.55
2022-08-26T09:26:24.732Z,22.13
2022-08-26T09:28:57.439Z,25.38
2022-08-26T09:31:27.386Z,18.85
2022-08-26T09:34:06.308Z,19.27
2022-08-26T09:36:41.409Z,19.27
2022-08-26T09:39:12.715Z,18.50
2022-08-26T09:41:40.893Z,25.63
2022-08-26T09:44:14.609Z,22.63
2022-08-26T09:46:45.024Z,26.13
2022-08-26T09:49:24.967Z,19.92
2022-08-26T09:52:04.610Z,21.13
2022-08-26T09:54:34.272Z,15.35
2022-08-26T09:57:11.558Z,22.52
2022-08-26T09:59:39.059Z,22.23
2022-08-26T10:02:17.148Z,21.90
2022-08-26T10:04:54.055Z,23.88
2022-08-26T10:07:35.144Z,22.88
2022-08-26T10:10:04.467Z,23.70
2022-08-26T10:12:33.019Z,21.50
2022-08-26T10:15:03.532Z,21.27
2022-08-26T10:17:35.095Z,22.45
2022-08-26T10:20:22.555Z,26.33
2022-08-26T10:22:54.062Z,15.32
2022-08-26T10:25:24.394Z,19.50
2022-08-26T10:28:10.340Z,23.58
2022-08-26T10:30:57.317Z,20.27
2022-08-26T10:33:37.279Z,18.70
2022-08-26T10:36:43.091Z,19.30
2022-08-26T10:39:29.383Z,24.92
2022-08-26T10:41:59.812Z,23.95
2022-08-26T10:44:27.432Z,22.92
2022-08-26T10:46:58.867Z,27.75
2022-08-26T10:49:26.257Z,20.65
2022-08-26T10:52:01.883Z,21.88
2022-08-26T10:54:32.592Z,23.88
2022-08-26T10:57:03.035Z,21.40
2022-08-26T10:59:38.155Z,22.45
2022-08-26T11:02:08.229Z,25.00
2022-08-26T11:04:47.124Z,17.60
2022-08-26T11:07:37.276Z,20.52
2022-08-26T11:10:06.751Z,24.40
2022-08-26T11:12:50.926Z,25.63
2022-08-26T11:15:42.398Z,21.02
2022-08-26T11:18:10.793Z,18.73
2022-08-26T11:20:41.810Z,25.25
2022-08-26T11:23:28.223Z,18.75
2022-08-26T11:26:11.009Z,21.27
2022-08-26T11:31:10.029Z,28.90
2022-08-26T11:33:56.919Z,17.75
2022-08-26T11:36:42.767Z,26.70
2022-08-26T11:39:16.581Z,23.67
2022-08-26T11:41:44.755Z,23.42
2022-08-26T11:44:16.815Z,25.08
2022-08-26T11:46:52.522Z,22.88
2022-08-26T11:49:19.980Z,22.25
2022-08-26T11:51:48.335Z,17.08
2022-08-26T11:54:17.454Z,14.38
2022-08-26T11:56:58.104Z,20.42
2022-08-26T12:02:13.995Z,11.95
2022-08-26T12:04:43.124Z,13.10
2022-08-26T12:07:10.736Z,25.98
2022-08-26T12:09:39.288Z,33.15
2022-08-26T12:12:11.124Z,11.60
2022-08-26T12:14:39.740Z,17.23
2022-08-26T12:17:11.499Z,12.98
2022-08-26T12:19:41.164Z,23.67
2022-08-26T12:22:14.852Z,29.88
2022-08-26T12:24:43.848Z,20.63
2022-08-26T12:27:16.484Z,21.20
2022-08-26T12:29:43.868Z,34.08
2022-08-26T12:32:17.550Z,17.90
2022-08-26T12:34:48.957Z,18.45
2022-08-26T12:37:16.908Z,13.52
2022-08-26T12:39:47.880Z,20.98
2022-08-26T12:42:23.911Z,13.73
2022-08-26T12:44:59.147Z,17.20
2022-08-26T12:47:32.727Z,15.07
2022-08-26T12:50:13.440Z,20.40
2022-08-26T12:52:43.176Z,21.85
2022-08-26T12:55:19.695Z,14.75
2022-08-26T12:57:47.993Z,17.42
2022-08-26T13:00:28.418Z,15.38
2022-08-26T13:02:56.370Z,22.65
2022-08-26T13:05:25.956Z,0.52
2022-08-26T13:08:09.382Z,4.93
2022-08-26T13:13:04.383Z,17.08
2022-08-26T13:15:31.870Z,0.00
2022-08-26T13:17:59.553Z,1.13
2022-08-26T13:20:28.404Z,0.15
2022-08-26T13:22:58.903Z,0.38
2022-08-26T13:25:27.413Z,0.60
2022-08-26T13:27:55.432Z,1.20
2022-08-26T13:30:26.125Z,0.73
2022-08-26T13:35:21.005Z,0.52
2022-08-26T13:37:49.947Z,0.43
2022-08-26T13:40:17.697Z,0.82
2022-08-26T13:42:49.831Z,0.90
2022-08-26T13:45:17.640Z,0.40
2022-08-26T13:47:45.251Z,0.22
2022-08-26T13:50:12.745Z,1.35
2022-08-26T13:52:40.221Z,18.17
2022-08-26T13:55:09.932Z,17.52
2022-08-26T13:57:38.418Z,16.92
2022-08-26T14:00:07.076Z,17.30
2022-08-26T14:02:38.781Z,18.10
2022-08-26T14:05:06.741Z,18.45
2022-08-26T14:07:34.412Z,16.02
2022-08-26T14:10:01.896Z,20.98
2022-08-26T14:12:30.802Z,28.33
2022-08-26T14:14:58.289Z,17.65
2022-08-26T14:17:26.251Z,23.05
2022-08-26T14:19:54.137Z,20.55
2022-08-26T14:22:22.905Z,20.02
2022-08-26T14:24:50.423Z,20.77
2022-08-26T14:27:18.005Z,20.80
2022-08-26T14:29:46.844Z,24.17
2022-08-26T14:32:16.605Z,16.35
2022-08-26T14:34:46.389Z,15.15
2022-08-26T14:37:15.418Z,20.63
2022-08-26T14:39:43.013Z,20.88
2022-08-26T14:42:11.011Z,15.32
2022-08-26T14:44:39.483Z,19.38
2022-08-26T14:47:08.640Z,19.88
2022-08-26T14:49:36.157Z,16.02
2022-08-26T14:52:03.905Z,14.15
2022-08-26T14:54:30.518Z,17.42
2022-08-26T14:56:59.306Z,20.10
2022-08-26T14:59:28.113Z,16.10
2022-08-26T15:01:56.251Z,17.25
2022-08-26T15:04:25.594Z,16.67
2022-08-26T15:06:54.033Z,20.15
2022-08-26T15:09:22.225Z,15.63
2022-08-26T15:11:50.252Z,22.38
2022-08-26T15:14:19.776Z,17.77
2022-08-26T15:16:47.836Z,18.25
2022-08-26T15:19:15.983Z,16.15
2022-08-26T15:21:45.571Z,15.23
2022-08-26T15:24:13.344Z,16.10
2022-08-26T15:26:40.889Z,18.35
2022-08-26T15:29:08.519Z,14.60
2022-08-26T15:31:36.615Z,17.50
2022-08-26T15:34:05.335Z,18.27
2022-08-26T15:36:33.190Z,17.45
2022-08-26T15:39:02.447Z,20.20
2022-08-26T15:41:30.324Z,17.92
2022-08-26T15:44:03.576Z,16.38
2022-08-26T15:46:31.508Z,22.40
2022-08-26T15:48:59.046Z,16.15
2022-08-26T15:51:28.250Z,16.15
2022-08-26T15:53:56.514Z,18.58
2022-08-26T15:56:26.701Z,15.55
2022-08-26T15:58:54.999Z,18.17
2022-08-26T16:01:27.177Z,16.13
2022-08-26T16:03:55.725Z,15.43
2022-08-26T16:06:24.427Z,16.88
2022-08-26T16:08:51.963Z,16.92
2022-08-26T16:11:19.887Z,13.75
2022-08-26T16:13:49.114Z,18.13
2022-08-26T16:16:16.840Z,16.48
2022-08-26T16:18:44.577Z,20.33
2022-08-26T16:21:15.959Z,17.90
2022-08-26T16:23:45.375Z,17.50
2022-08-26T16:26:14.106Z,19.65
2022-08-26T16:28:41.653Z,19.65
2022-08-26T16:31:12.923Z,19.45
2022-08-26T16:33:40.769Z,20.50
2022-08-26T16:36:08.978Z,19.98
2022-08-26T16:38:37.564Z,20.42
2022-08-26T16:41:05.911Z,24.83
2022-08-26T16:43:33.383Z,21.65
2022-08-26T16:46:01.130Z,18.70
2022-08-26T16:48:30.060Z,22.35
2022-08-26T16:50:57.589Z,28.20
2022-08-26T16:53:25.072Z,22.60
2022-08-26T16:55:52.593Z,16.60
2022-08-26T16:58:22.255Z,18.60
2022-08-26T17:00:49.940Z,22.05
2022-08-26T17:03:17.418Z,25.15
2022-08-26T17:05:46.320Z,20.30
2022-08-26T17:08:24.330Z,21.80
2022-08-26T17:10:56.033Z,19.08
2022-08-26T17:13:34.758Z,21.08
2022-08-26T17:16:04.265Z,18.70
2022-08-26T17:18:33.354Z,16.92
2022-08-26T17:21:03.032Z,22.35
2022-08-26T17:23:30.525Z,17.17
2022-08-26T17:25:58.046Z,18.48
2022-08-26T17:28:25.465Z,23.60
2022-08-26T17:30:52.955Z,25.38
2022-08-26T17:33:24.455Z,23.65
2022-08-26T17:35:53.887Z,24.70
2022-08-26T17:38:22.805Z,22.48
2022-08-26T17:40:50.715Z,21.92
2022-08-26T17:43:18.211Z,24.25
2022-08-26T17:45:45.640Z,23.30
2022-08-26T17:48:13.287Z,24.58
2022-08-26T17:50:41.430Z,19.80
2022-08-26T17:53:09.168Z,24.98
2022-08-26T17:55:47.269Z,23.77
2022-08-26T17:58:14.972Z,27.85
2022-08-26T18:00:43.444Z,23.60
2022-08-26T18:03:11.170Z,22.42
2022-08-26T18:05:38.823Z,25.48
2022-08-26T18:08:06.405Z,27.35
2022-08-26T18:10:34.134Z,28.95
2022-08-26T18:13:02.930Z,25.30
2022-08-26T18:15:30.505Z,26.00
2022-08-26T18:17:57.944Z,27.30
2022-08-26T18:20:25.438Z,27.30
2022-08-26T18:22:55.486Z,30.35
2022-08-26T18:25:23.045Z,32.33
2022-08-26T18:27:50.543Z,30.40
2022-08-26T18:30:20.644Z,32.92
2022-08-26T18:32:48.154Z,33.25
2022-08-26T18:35:15.564Z,39.78
2022-08-26T18:37:43.044Z,32.97
2022-08-26T18:40:11.439Z,40.15
2022-08-26T18:42:39.151Z,35.47
2022-08-26T18:45:07.406Z,40.05
2022-08-26T18:47:36.475Z,38.30
2022-08-26T18:50:03.995Z,36.72
2022-08-26T18:52:31.829Z,36.47
2022-08-26T18:54:59.315Z,34.90
2022-08-26T18:57:26.780Z,35.90
2022-08-26T18:59:54.246Z,33.58
2022-08-26T19:02:21.982Z,31.88
2022-08-26T19:04:51.756Z,34.72
2022-08-26T19:07:20.187Z,34.72
2022-08-26T19:09:47.647Z,35.40
2022-08-26T19:12:21.403Z,34.97
2022-08-26T19:14:48.887Z,36.17
2022-08-26T19:17:16.324Z,35.35
2022-08-26T19:19:43.809Z,31.13
2022-08-26T19:22:14.356Z,32.03
2022-08-26T19:24:41.820Z,35.60
2022-08-26T19:27:14.160Z,32.80
2022-08-26T19:29:42.267Z,36.85
2022-08-26T19:32:09.679Z,33.55
2022-08-26T19:34:37.405Z,35.90
2022-08-26T19:37:04.877Z,33.92
2022-08-26T19:39:33.713Z,31.15
2022-08-26T19:42:01.350Z,30.45
2022-08-26T19:44:46.525Z,31.98
2022-08-26T19:47:15.136Z,34.30
2022-08-26T19:49:42.606Z,29.27
2022-08-26T19:52:10.980Z,34.63
2022-08-26T19:54:40.227Z,30.67
2022-08-26T19:57:07.983Z,27.67
2022-08-26T19:59:36.201Z,29.33
2022-08-26T20:02:07.128Z,31.55
2022-08-26T20:04:38.095Z,29.20
2022-08-26T20:07:05.919Z,37.35
2022-08-26T20:09:34.368Z,33.67
2022-08-26T20:12:05.961Z,33.03
2022-08-26T20:14:33.884Z,30.05
2022-08-26T20:17:01.507Z,36.15
2022-08-26T20:19:46.281Z,31.67
2022-08-26T20:22:14.121Z,32.92
2022-08-26T20:24:41.722Z,36.05
2022-08-26T20:27:10.636Z,31.60
2022-08-26T20:29:38.231Z,37.08
2022-08-26T20:32:06.858Z,33.03
2022-08-26T20:34:35.160Z,32.03
2022-08-26T20:37:03.305Z,35.40
2022-08-26T20:39:30.864Z,34.47
2022-08-26T20:41:58.754Z,35.50
2022-08-26T20:44:27.923Z,36.15
2022-08-26T20:46:56.555Z,31.83
2022-08-26T20:49:26.649Z,28.58
2022-08-26T20:51:54.504Z,31.02
2022-08-26T20:54:27.540Z,25.50
2022-08-26T20:56:56.345Z,27.50
2022-08-26T20:59:24.351Z,27.02
2022-08-26T21:01:53.145Z,26.88
2022-08-26T21:04:21.737Z,26.70
2022-08-26T21:06:52.368Z,25.83
2022-08-26T21:09:20.591Z,34.97
2022-08-26T21:11:48.931Z,28.27
2022-08-26T21:14:17.357Z,24.65
2022-08-26T21:16:45.537Z,28.60
2022-08-26T21:19:15.950Z,24.50
2022-08-26T21:21:44.454Z,21.45
2022-08-26T21:24:13.039Z,23.25
2022-08-26T21:26:40.755Z,23.63
2022-08-26T21:29:09.665Z,23.30
2022-08-26T21:31:41.029Z,21.08
2022-08-26T21:34:13.816Z,22.20
2022-08-26T21:36:41.769Z,20.25
2022-08-26T21:39:12.083Z,27.15
2022-08-26T21:44:07.124Z,25.27
2022-08-26T21:46:37.192Z,26.20
2022-08-26T21:49:06.781Z,21.92
2022-08-26T21:51:37.025Z,24.30
2022-08-26T21:54:09.923Z,25.65
2022-08-26T21:56:39.606Z,29.00
2022-08-26T21:59:07.404Z,27.35
2022-08-26T22:01:35.388Z,29.42
2022-08-26T22:04:04.190Z,28.52
2022-08-26T22:06:32.485Z,32.75
2022-08-26T22:09:01.734Z,28.27
2022-08-26T22:11:29.276Z,30.73
2022-08-26T22:13:57.729Z,29.67
2022-08-26T22:16:26.781Z,29.35
2022-08-26T22:18:54.747Z,26.02
2022-08-26T22:21:24.475Z,24.95
2022-08-26T22:23:52.054Z,29.80
2022-08-26T22:26:27.966Z,26.92
2022-08-26T22:28:58.612Z,29.15
2022-08-26T22:31:37.206Z,29.77
2022-08-26T22:34:06.538Z,29.33
2022-08-26T22:36:34.005Z,30.52
2022-08-26T22:39:01.998Z,30.08
2022-08-26T22:41:33.458Z,25.42
2022-08-26T22:44:02.560Z,26.67
2022-08-26T22:46:31.132Z,26.95
2022-08-26T22:48:58.709Z,25.67
2022-08-26T22:51:27.831Z,23.38
2022-08-26T22:53:55.277Z,28.08
2022-08-26T22:56:23.325Z,29.67
2022-08-26T22:58:52.235Z,26.30
2022-08-26T23:01:19.846Z,26.40
2022-08-26T23:03:47.408Z,26.63
2022-08-26T23:06:14.989Z,25.70
2022-08-26T23:08:45.221Z,25.63
2022-08-26T23:11:13.285Z,24.42
2022-08-26T23:13:40.986Z,25.52
2022-08-26T23:16:11.191Z,24.30
2022-08-26T23:18:39.936Z,24.48
2022-08-26T23:21:07.661Z,28.00
2022-08-26T23:23:35.586Z,27.23
2022-08-26T23:26:05.946Z,26.05
2022-08-26T23:28:33.879Z,26.80
2022-08-26T23:31:01.386Z,26.52
2022-08-26T23:33:50.177Z,27.05
2022-08-26T23:36:18.213Z,27.13
2022-08-26T23:38:48.140Z,23.23
2022-08-26T23:41:21.108Z,28.08
2022-08-26T23:43:48.940Z,31.50
2022-08-26T23:46:16.481Z,30.35
2022-08-26T23:48:45.288Z,26.73
2022-08-26T23:51:31.168Z,27.80
2022-08-26T23:53:59.003Z,31.98
2022-08-26T23:56:26.889Z,33.47
2022-08-26T23:58:54.493Z,34.75
